Time;durP1;ratioP1;P1;durP2;ratioP2;P2;SDS_P1;SDS_P2;PMS_P1;PMS_P2;Temp;Humidity;BMP_temperature;BMP_pressure;BME280_temperature;BME280_humidity;BME280_pressure;Samples;Min_cycle;Max_cycle;Signal;HPM_P1;HPM_P2
2021/12/20 00:00:00;;;;;;;75.97;8.87;;;;;;;6.69;100.00;98412.69;5081290;28;20606;-59
2021/12/20 00:02:27;;;;;;;88.53;10.17;;;;;;;6.73;100.00;98417.31;5084972;28;20621;-59
2021/12/20 00:04:53;;;;;;;84.70;10.10;;;;;;;6.55;100.00;98422.69;5085786;28;20639;-60
2021/12/20 00:07:21;;;;;;;68.73;7.43;;;;;;;6.65;100.00;98416.84;5083891;28;20626;-60
2021/12/20 00:09:47;;;;;;;99.63;10.40;;;;;;;6.73;100.00;98427.13;5082066;28;20610;-59
2021/12/20 00:12:14;;;;;;;92.73;9.00;;;;;;;6.80;100.00;98419.88;5083039;28;20611;-59
2021/12/20 00:14:40;;;;;;;85.60;8.90;;;;;;;6.71;100.00;98415.94;5085560;28;20862;-59
2021/12/20 00:17:08;;;;;;;86.23;9.10;;;;;;;6.82;100.00;98415.16;5085663;28;21356;-59
2021/12/20 00:19:35;;;;;;;107.90;10.30;;;;;;;6.68;100.00;98405.78;5081960;28;20603;-59
2021/12/20 00:22:02;;;;;;;125.47;11.00;;;;;;;6.72;100.00;98414.88;5082089;28;20606;-59
2021/12/20 00:24:28;;;;;;;66.57;6.47;;;;;;;6.64;100.00;98400.09;5081854;28;20671;-59
2021/12/20 00:26:55;;;;;;;65.40;8.23;;;;;;;6.69;100.00;98407.38;5082127;28;20636;-59
2021/12/20 00:29:22;;;;;;;51.97;8.63;;;;;;;6.50;100.00;98411.91;5083860;28;20618;-60
2021/12/20 00:31:48;;;;;;;67.53;6.63;;;;;;;6.53;100.00;98412.28;5085393;28;20608;-60
2021/12/20 00:34:16;;;;;;;69.50;7.80;;;;;;;6.67;100.00;98409.44;5084090;28;20649;-59
2021/12/20 00:36:43;;;;;;;44.53;6.50;;;;;;;6.69;100.00;98408.19;5081840;28;20653;-60
2021/12/20 00:41:54;;;;;;;69.57;6.63;;;;;;;6.68;100.00;98406.59;5085436;28;20586;-59
2021/12/20 00:44:20;;;;;;;69.90;7.70;;;;;;;6.72;100.00;98414.88;5083320;28;20608;-59
2021/12/20 00:46:47;;;;;;;71.50;7.17;;;;;;;6.73;100.00;98413.84;5081648;28;20583;-59
2021/12/20 00:49:14;;;;;;;57.30;6.53;;;;;;;6.67;100.00;98417.41;5082579;28;20590;-59
2021/12/20 00:51:42;;;;;;;75.27;7.97;;;;;;;6.71;100.00;98413.28;5085194;28;20625;-59
2021/12/20 00:54:08;;;;;;;52.53;6.90;;;;;;;6.65;100.00;98406.22;5086205;28;20582;-59
2021/12/20 00:56:35;;;;;;;96.07;8.00;;;;;;;6.66;100.00;98410.47;5085308;28;20610;-60
2021/12/20 00:59:01;;;;;;;84.10;8.30;;;;;;;6.62;100.00;98414.63;5084441;28;20599;-59
2021/12/20 01:01:28;;;;;;;100.13;9.23;;;;;;;6.67;100.00;98412.09;5088111;28;20601;-59
2021/12/20 01:03:55;;;;;;;89.33;8.03;;;;;;;6.70;100.00;98411.66;5088767;28;20613;-59
2021/12/20 01:06:21;;;;;;;53.73;7.10;;;;;;;6.67;100.00;98417.41;5086774;28;20593;-59
2021/12/20 01:08:51;;;;;;;78.03;7.27;;;;;;;6.75;100.00;98412.59;5085106;28;20602;-59
2021/12/20 01:11:22;;;;;;;48.33;8.77;;;;;;;6.75;100.00;98420.53;5086425;28;20599;-59
2021/12/20 01:13:49;;;;;;;83.33;7.53;;;;;;;6.76;100.00;98418.72;5088533;28;20606;-60
2021/12/20 01:16:15;;;;;;;105.77;8.77;;;;;;;6.82;100.00;98425.75;5087449;28;20609;-59
2021/12/20 01:18:43;;;;;;;95.00;8.67;;;;;;;6.81;100.00;98432.09;5084855;28;20621;-59
2021/12/20 01:21:09;;;;;;;65.77;6.67;;;;;;;6.84;100.00;98427.16;5085272;28;20618;-59
2021/12/20 01:23:37;;;;;;;96.77;9.13;;;;;;;6.84;100.00;98442.28;5092414;28;20614;-59
2021/12/20 01:26:06;;;;;;;81.60;8.43;;;;;;;6.80;100.00;98435.81;5084300;28;20601;-59
2021/12/20 01:28:33;;;;;;;57.00;7.47;;;;;;;6.81;100.00;98430.25;5076402;28;20658;-59
2021/12/20 01:31:00;;;;;;;51.50;6.90;;;;;;;6.82;100.00;98431.06;5076500;28;20614;-59
2021/12/20 01:33:27;;;;;;;114.23;10.63;;;;;;;6.84;100.00;98437.00;5076216;28;20664;-59
2021/12/20 01:35:55;;;;;;;63.67;7.30;;;;;;;6.83;100.00;98433.53;5076514;28;20589;-59
2021/12/20 01:38:21;;;;;;;54.70;7.70;;;;;;;6.90;100.00;98438.75;5076379;28;20781;-59
2021/12/20 01:40:48;;;;;;;86.17;9.70;;;;;;;6.91;100.00;98445.66;5076341;28;20759;-59
2021/12/20 01:43:17;;;;;;;103.97;9.43;;;;;;;6.92;100.00;98439.31;5076207;28;20614;-59
2021/12/20 01:45:47;;;;;;;117.40;9.63;;;;;;;6.84;100.00;98432.47;5076163;28;20587;-59
2021/12/20 01:48:15;;;;;;;60.10;7.73;;;;;;;6.82;100.00;98439.03;5076191;28;20609;-59
2021/12/20 01:53:30;;;;;;;63.30;7.03;;;;;;;6.92;100.00;98431.34;5084978;28;21209;-59
2021/12/20 01:55:58;;;;;;;72.53;7.77;;;;;;;6.87;100.00;98434.66;5082881;28;20608;-59
2021/12/20 01:58:28;;;;;;;76.83;8.60;;;;;;;6.98;100.00;98430.44;5085383;28;20674;-59
2021/12/20 02:03:46;;;;;;;58.47;6.43;;;;;;;7.03;100.00;98431.38;5084136;28;20617;-59
2021/12/20 02:06:21;;;;;;;75.83;9.27;;;;;;;7.05;100.00;98428.50;5084281;28;20625;-59
2021/12/20 02:08:48;;;;;;;81.80;9.33;;;;;;;7.09;100.00;98436.81;5087655;28;20609;-59
2021/12/20 02:11:16;;;;;;;82.90;8.27;;;;;;;6.98;100.00;98431.25;5086427;28;20613;-59
2021/12/20 02:13:44;;;;;;;40.43;6.53;;;;;;;6.89;100.00;98448.53;5082979;28;20640;-59
2021/12/20 02:16:10;;;;;;;76.80;7.60;;;;;;;6.35;100.00;98459.25;5084358;28;20595;-60
2021/12/20 02:18:38;;;;;;;73.73;4.70;;;;;;;5.83;100.00;98471.22;5087305;28;20586;-59
2021/12/20 02:21:06;;;;;;;92.13;5.43;;;;;;;5.40;100.00;98474.66;5087206;28;20609;-59
2021/12/20 02:23:33;;;;;;;82.93;5.40;;;;;;;5.12;100.00;98478.72;5084274;28;20610;-59
2021/12/20 02:26:00;;;;;;;106.73;5.37;;;;;;;5.03;100.00;98464.94;5082500;28;20610;-59
2021/12/20 02:28:34;;;;;;;63.53;3.50;;;;;;;5.18;100.00;98473.38;5084442;28;20597;-59
2021/12/20 02:39:16;;;;;;;62.73;2.87;;;;;;;5.64;100.00;98464.25;5075051;28;20598;-59
2021/12/20 02:41:43;;;;;;;73.17;4.20;;;;;;;5.75;100.00;98460.91;5075224;28;20595;-59
2021/12/20 02:44:17;;;;;;;61.03;3.17;;;;;;;6.01;100.00;98455.34;5075151;28;20636;-59
2021/12/20 02:46:50;;;;;;;77.40;4.77;;;;;;;6.31;100.00;98434.22;5075012;28;20598;-59
2021/12/20 02:49:19;;;;;;;88.73;4.53;;;;;;;6.43;100.00;98425.28;5074912;28;20595;-59
2021/12/20 02:51:50;;;;;;;37.53;2.40;;;;;;;6.58;100.00;98424.06;5074897;28;20614;-59
2021/12/20 02:54:18;;;;;;;56.10;2.93;;;;;;;6.68;100.00;98429.66;5083977;28;20606;-60
2021/12/20 02:56:46;;;;;;;77.00;4.40;;;;;;;6.64;100.00;98431.13;5083098;28;20606;-59
2021/12/20 02:59:13;;;;;;;25.00;1.90;;;;;;;6.67;100.00;98430.69;5083852;28;20622;-59
2021/12/20 03:01:43;;;;;;;63.17;3.53;;;;;;;6.65;100.00;98430.91;5086467;28;20609;-59
2021/12/20 03:04:10;;;;;;;60.97;3.57;;;;;;;6.65;100.00;98427.44;5086201;28;20632;-59
2021/12/20 03:06:40;;;;;;;97.67;5.53;;;;;;;6.70;100.00;98430.22;5082734;28;20610;-59
2021/12/20 03:09:12;;;;;;;39.70;2.23;;;;;;;6.73;100.00;98425.28;5082879;28;20610;-59
2021/12/20 03:11:39;;;;;;;95.03;5.10;;;;;;;6.77;100.00;98425.66;5074601;28;21422;-59
2021/12/20 03:14:14;;;;;;;54.10;2.83;;;;;;;6.78;100.00;98432.56;5074582;28;20606;-59
2021/12/20 03:16:41;;;;;;;53.57;3.17;;;;;;;6.78;100.00;98430.72;5078210;28;20617;-59
2021/12/20 03:19:07;;;;;;;38.40;2.27;;;;;;;6.83;100.00;98424.75;5086393;28;20613;-59
2021/12/20 03:21:34;;;;;;;60.33;3.57;;;;;;;6.85;100.00;98423.47;5082699;28;20615;-59
2021/12/20 03:24:01;;;;;;;83.37;4.23;;;;;;;6.85;100.00;98420.81;5083291;28;20610;-59
2021/12/20 03:26:29;;;;;;;53.17;3.20;;;;;;;6.82;100.00;98434.53;5082528;28;20618;-59
2021/12/20 03:28:56;;;;;;;80.53;4.63;;;;;;;6.81;100.00;98432.91;5082687;28;20591;-59
2021/12/20 03:31:23;;;;;;;71.53;4.37;;;;;;;6.79;100.00;98439.50;5084565;28;20617;-59
2021/12/20 03:33:49;;;;;;;60.37;3.87;;;;;;;6.84;100.00;98440.44;5085903;28;20625;-59
2021/12/20 03:36:16;;;;;;;46.43;3.13;;;;;;;6.84;100.00;98442.28;5084894;28;20606;-59
2021/12/20 03:38:44;;;;;;;79.70;4.13;;;;;;;6.88;100.00;98444.25;5082456;28;20606;-59
2021/12/20 03:41:11;;;;;;;38.80;2.73;;;;;;;6.86;100.00;98440.22;5082987;28;20617;-59
2021/12/20 03:43:38;;;;;;;36.30;2.37;;;;;;;6.87;100.00;98447.94;5085915;28;20593;-59
2021/12/20 03:46:06;;;;;;;82.40;4.93;;;;;;;6.75;100.00;98451.59;5085900;28;20597;-59
2021/12/20 03:48:33;;;;;;;63.33;3.80;;;;;;;6.59;100.00;98449.56;5082334;28;20684;-59
2021/12/20 03:51:01;;;;;;;59.40;4.80;;;;;;;6.70;100.00;98446.16;5082513;28;20623;-59
2021/12/20 03:53:28;;;;;;;101.83;6.50;;;;;;;6.75;100.00;98444.44;5090591;28;20630;-59
2021/12/20 03:55:55;;;;;;;55.03;4.17;;;;;;;6.80;100.00;98443.78;5080475;28;20636;-59
2021/12/20 03:58:22;;;;;;;76.30;5.00;;;;;;;6.83;100.00;98449.44;5083800;28;21355;-59
2021/12/20 04:00:51;;;;;;;172.83;10.00;;;;;;;6.85;100.00;98454.50;5082364;28;20615;-59
2021/12/20 04:03:18;;;;;;;72.50;5.00;;;;;;;6.86;100.00;98461.47;5083537;28;20633;-59
2021/12/20 04:05:44;;;;;;;60.17;4.03;;;;;;;6.88;100.00;98454.06;5085572;28;20915;-60
2021/12/20 04:08:11;;;;;;;23.67;2.53;;;;;;;6.90;100.00;98458.09;5085196;28;20609;-59
2021/12/20 04:10:38;;;;;;;98.10;6.43;;;;;;;6.93;100.00;98452.34;5082194;28;20670;-59
2021/12/20 04:13:04;;;;;;;46.23;3.40;;;;;;;6.94;100.00;98453.16;5082230;28;20610;-59
2021/12/20 04:15:31;;;;;;;58.77;4.47;;;;;;;6.98;100.00;98464.97;5085379;28;20639;-59
2021/12/20 04:17:59;;;;;;;57.37;3.80;;;;;;;6.94;100.00;98464.59;5085609;28;20640;-59
2021/12/20 04:20:25;;;;;;;46.90;3.83;;;;;;;6.90;100.00;98467.94;5083053;28;20597;-59
2021/12/20 04:22:52;;;;;;;49.03;3.70;;;;;;;6.82;100.00;98468.25;5088227;28;20601;-59
2021/12/20 04:25:19;;;;;;;52.33;3.77;;;;;;;6.84;100.00;98463.53;5077134;28;20607;-60
2021/12/20 04:27:45;;;;;;;67.23;5.60;;;;;;;6.42;100.00;98489.97;5085218;28;20606;-59
2021/12/20 04:30:13;;;;;;;31.10;2.10;;;;;;;5.64;100.00;98482.78;5088861;28;20655;-59
2021/12/20 04:32:42;;;;;;;69.30;4.37;;;;;;;5.56;100.00;98493.69;5085885;28;20618;-59
2021/12/20 04:35:12;;;;;;;71.13;4.20;;;;;;;5.55;100.00;98484.09;5086052;28;20602;-59
2021/12/20 04:37:40;;;;;;;58.37;4.20;;;;;;;5.51;100.00;98485.56;5089351;28;20627;-59
2021/12/20 04:40:11;;;;;;;42.57;2.30;;;;;;;5.62;100.00;98490.97;5089350;28;20597;-60
2021/12/20 04:42:38;;;;;;;90.37;5.77;;;;;;;5.54;100.00;98485.94;5077494;28;20646;-59
2021/12/20 04:45:06;;;;;;;36.43;2.20;;;;;;;5.43;100.00;98492.75;5077518;28;20641;-59
2021/12/20 04:47:33;;;;;;;54.30;3.70;;;;;;;5.67;100.00;98492.97;5077358;28;20618;-59
2021/12/20 04:50:00;;;;;;;76.47;4.30;;;;;;;5.77;100.00;98495.94;5077503;28;21129;-59
2021/12/20 04:52:28;;;;;;;41.80;3.03;;;;;;;5.56;100.00;98499.78;5080632;28;20612;-59
2021/12/20 04:54:55;;;;;;;70.27;4.10;;;;;;;5.53;100.00;98502.06;5082683;28;20633;-59
2021/12/20 04:57:22;;;;;;;84.87;5.10;;;;;;;5.48;100.00;98501.91;5087307;28;20602;-59
2021/12/20 04:59:48;;;;;;;79.90;4.10;;;;;;;5.72;100.00;98499.25;5088792;28;21410;-59
2021/12/20 05:02:15;;;;;;;78.37;5.40;;;;;;;5.85;100.00;98500.94;5087751;28;20601;-59
2021/12/20 05:04:42;;;;;;;105.53;5.53;;;;;;;5.93;100.00;98504.19;5085280;28;20660;-59
2021/12/20 05:07:10;;;;;;;44.40;2.53;;;;;;;6.07;100.00;98502.19;5085553;28;20993;-59
2021/12/20 05:09:39;;;;;;;63.43;3.67;;;;;;;6.20;100.00;98510.03;5088606;28;20594;-59
2021/12/20 05:12:12;;;;;;;82.27;4.67;;;;;;;6.32;100.00;98500.28;5088711;28;20609;-59
2021/12/20 05:14:41;;;;;;;33.20;2.33;;;;;;;6.30;100.00;98505.03;5088361;28;20609;-59
2021/12/20 05:17:08;;;;;;;65.30;3.33;;;;;;;6.29;100.00;98508.69;5088806;28;20609;-59
2021/12/20 05:19:34;;;;;;;64.33;3.37;;;;;;;6.30;100.00;98512.16;5085183;28;20648;-59
2021/12/20 05:22:01;;;;;;;45.93;2.63;;;;;;;6.07;100.00;98519.94;5085288;28;20610;-59
2021/12/20 05:24:28;;;;;;;65.13;3.97;;;;;;;5.86;100.00;98515.84;5081355;28;20691;-59
2021/12/20 05:26:56;;;;;;;64.73;3.43;;;;;;;5.98;100.00;98516.75;5085132;28;20610;-59
2021/12/20 05:29:24;;;;;;;60.33;3.70;;;;;;;5.81;100.00;98526.28;5087108;28;20610;-59
2021/12/20 05:31:50;;;;;;;81.20;4.23;;;;;;;5.33;100.00;98533.97;5088359;28;20639;-59
2021/12/20 05:34:19;;;;;;;72.50;4.23;;;;;;;5.13;100.00;98535.94;5086917;28;20711;-59
2021/12/20 05:36:45;;;;;;;70.20;3.47;;;;;;;5.10;100.00;98534.53;5084894;28;20610;-59
2021/12/20 05:39:12;;;;;;;22.53;1.70;;;;;;;5.29;100.00;98543.41;5084945;28;20610;-59
2021/12/20 05:41:39;;;;;;;70.07;4.23;;;;;;;5.24;100.00;98536.06;5088213;28;20593;-59
2021/12/20 05:44:07;;;;;;;20.80;1.30;;;;;;;5.43;100.00;98540.44;5088408;28;20609;-59
2021/12/20 05:46:34;;;;;;;66.17;3.63;;;;;;;5.50;100.00;98532.44;5083776;28;20660;-59
2021/12/20 05:49:01;;;;;;;34.13;2.23;;;;;;;5.87;100.00;98536.03;5085000;28;20614;-59
2021/12/20 05:51:28;;;;;;;43.93;3.07;;;;;;;5.67;100.00;98545.97;5087460;28;20587;-59
2021/12/20 05:53:54;;;;;;;29.37;2.30;;;;;;;5.54;100.00;98548.72;5090059;28;20622;-59
2021/12/20 05:56:21;;;;;;;35.67;2.00;;;;;;;5.34;100.00;98552.31;5084701;28;20609;-59
2021/12/20 05:58:47;;;;;;;139.10;7.80;;;;;;;5.21;100.00;98564.81;5084656;28;20625;-59
2021/12/20 06:01:16;;;;;;;49.27;3.37;;;;;;;5.24;100.00;98567.84;5085365;28;20618;-59
2021/12/20 06:03:42;;;;;;;45.77;3.50;;;;;;;5.11;100.00;98561.81;5088061;28;20692;-59
2021/12/20 06:06:09;;;;;;;29.00;1.93;;;;;;;5.05;100.00;98562.66;5087902;28;20617;-59
2021/12/20 06:08:36;;;;;;;83.10;4.80;;;;;;;5.02;100.00;98568.38;5084243;28;20659;-59
2021/12/20 06:11:03;;;;;;;58.30;4.00;;;;;;;5.09;100.00;98575.28;5084479;28;20622;-59
2021/12/20 06:13:29;;;;;;;58.57;3.63;;;;;;;5.20;100.00;98577.25;5087210;28;20958;-59
2021/12/20 06:15:56;;;;;;;52.80;5.10;;;;;;;5.11;100.00;98578.50;5087754;28;20632;-59
2021/12/20 06:18:24;;;;;;;62.70;4.77;;;;;;;5.01;100.00;98587.94;5085809;28;20593;-59
2021/12/20 06:20:50;;;;;;;106.23;6.23;;;;;;;5.12;100.00;98589.91;5084171;28;21217;-59
2021/12/20 06:23:17;;;;;;;57.10;3.57;;;;;;;5.13;100.00;98592.38;5092446;28;20619;-59
2021/12/20 06:25:44;;;;;;;43.33;3.43;;;;;;;5.23;100.00;98592.69;5080869;28;20620;-59
2021/12/20 06:28:11;;;;;;;30.20;2.77;;;;;;;5.39;100.00;98594.03;5087419;28;20627;-59
2021/12/20 06:30:38;;;;;;;71.97;5.27;;;;;;;5.68;100.00;98582.84;5083948;28;20593;-59
2021/12/20 06:33:04;;;;;;;25.97;2.50;;;;;;;5.88;100.00;98588.84;5083909;28;20637;-59
2021/12/20 06:35:32;;;;;;;55.97;4.03;;;;;;;6.01;100.00;98585.25;5086878;28;20610;-59
2021/12/20 06:38:01;;;;;;;61.23;3.90;;;;;;;5.98;100.00;98596.31;5087428;28;20613;-59
2021/12/20 06:40:29;;;;;;;52.27;3.70;;;;;;;5.97;100.00;98594.69;5084681;28;20617;-59
2021/12/20 06:42:56;;;;;;;71.67;4.63;;;;;;;5.86;100.00;98604.16;5084118;28;20606;-59
2021/12/20 06:53:44;;;;;;;53.77;4.17;;;;;;;6.30;100.00;98611.13;5122603;27;20809;-61
2021/12/20 06:56:12;;;;;;;24.80;2.70;;;;;;;6.28;100.00;98613.16;5107292;28;20627;-61
2021/12/20 06:58:40;;;;;;;36.40;3.03;;;;;;;6.31;100.00;98607.41;5107111;28;20624;-62
2021/12/20 07:01:07;;;;;;;13.13;1.53;;;;;;;6.31;100.00;98617.25;5107196;28;20608;-61
2021/12/20 07:03:33;;;;;;;55.10;4.23;;;;;;;6.34;100.00;98612.31;5098423;28;20679;-61
2021/12/20 07:06:00;;;;;;;46.03;3.27;;;;;;;6.36;100.00;98609.44;5107105;28;20608;-62
2021/12/20 07:08:27;;;;;;;26.33;1.97;;;;;;;6.37;100.00;98621.69;5106788;28;20625;-62
2021/12/20 07:10:55;;;;;;;73.37;4.10;;;;;;;6.36;100.00;98622.69;5106907;28;20601;-63
2021/12/20 07:13:22;;;;;;;34.93;2.80;;;;;;;6.35;100.00;98619.22;5106841;28;20627;-62
2021/12/20 07:15:48;;;;;;;57.17;3.77;;;;;;;6.38;100.00;98617.97;5106659;28;20608;-63
2021/12/20 07:18:15;;;;;;;39.93;3.07;;;;;;;6.36;100.00;98626.16;5106742;28;20612;-62
2021/12/20 07:20:42;;;;;;;60.80;4.20;;;;;;;6.35;100.00;98629.84;5106720;28;20631;-62
2021/12/20 07:23:08;;;;;;;29.23;2.30;;;;;;;6.36;100.00;98623.50;5106444;28;20640;-61
2021/12/20 07:25:35;;;;;;;57.17;4.03;;;;;;;6.36;100.00;98626.16;5106400;28;20624;-62
2021/12/20 07:28:03;;;;;;;52.33;4.03;;;;;;;6.36;100.00;98625.34;5106643;28;20609;-62
2021/12/20 07:30:30;;;;;;;47.57;4.40;;;;;;;6.34;100.00;98624.78;5106456;28;20620;-62
2021/12/20 07:32:58;;;;;;;55.70;4.30;;;;;;;6.35;100.00;98629.84;5106524;28;20627;-62
2021/12/20 07:35:25;;;;;;;67.83;4.20;;;;;;;6.35;100.00;98635.16;5106341;28;20607;-62
2021/12/20 07:37:54;;;;;;;56.20;4.10;;;;;;;6.34;100.00;98641.50;5106287;28;20612;-61
2021/12/20 07:40:21;;;;;;;51.20;3.57;;;;;;;6.35;100.00;98635.16;5106241;28;20613;-62
2021/12/20 07:42:48;;;;;;;40.27;3.10;;;;;;;6.35;100.00;98635.16;5106065;28;20655;-62
2021/12/20 07:45:16;;;;;;;44.90;3.23;;;;;;;6.38;100.00;98640.00;5106219;28;20605;-62
2021/12/20 07:47:42;;;;;;;29.87;3.00;;;;;;;6.22;100.00;98634.47;5106426;28;20597;-62
2021/12/20 07:50:09;;;;;;;26.47;1.90;;;;;;;6.17;100.00;98639.59;5106092;28;20588;-62
2021/12/20 07:52:36;;;;;;;42.73;3.03;;;;;;;5.91;100.00;98641.41;5105796;28;20706;-61
2021/12/20 07:55:03;;;;;;;36.27;3.00;;;;;;;5.92;100.00;98639.59;5106177;28;20613;-62
2021/12/20 07:57:30;;;;;;;31.30;2.93;;;;;;;5.77;100.00;98647.00;5105951;28;20605;-62
2021/12/20 07:59:57;;;;;;;45.83;3.57;;;;;;;5.58;100.00;98651.41;5106066;28;21555;-62
2021/12/20 08:02:25;;;;;;;40.67;3.33;;;;;;;5.64;100.00;98653.19;5105826;28;21038;-61
2021/12/20 08:04:52;;;;;;;51.50;4.23;;;;;;;5.59;100.00;98657.50;5093511;28;20620;-62
2021/12/20 08:07:21;;;;;;;32.50;3.53;;;;;;;5.35;100.00;98654.56;5092306;28;20593;-62
2021/12/20 08:09:49;;;;;;;35.73;3.80;;;;;;;5.62;100.00;98655.25;5092302;28;20724;-63
2021/12/20 08:12:15;;;;;;;26.30;2.77;;;;;;;5.61;100.00;98658.91;5092252;28;20663;-62
2021/12/20 08:14:42;;;;;;;107.50;7.13;;;;;;;5.75;100.00;98657.84;5092025;28;20606;-62
2021/12/20 08:17:09;;;;;;;45.27;4.40;;;;;;;5.84;100.00;98661.03;5092151;28;20640;-62
2021/12/20 08:19:37;;;;;;;45.90;3.50;;;;;;;5.82;100.00;98665.72;5092035;28;20601;-62
2021/12/20 08:22:04;;;;;;;29.07;2.73;;;;;;;5.53;100.00;98661.00;5092177;28;20605;-62
2021/12/20 08:24:31;;;;;;;43.03;3.70;;;;;;;5.42;100.00;98660.66;5091613;28;20617;-62
2021/12/20 08:26:58;;;;;;;69.37;5.47;;;;;;;5.49;100.00;98657.97;5091847;28;20622;-62
2021/12/20 08:29:24;;;;;;;36.13;2.83;;;;;;;5.52;100.00;98659.38;5091737;28;20609;-61
2021/12/20 08:31:51;;;;;;;55.37;4.10;;;;;;;5.57;100.00;98668.31;5091682;28;20627;-62
2021/12/20 08:34:18;;;;;;;62.87;4.70;;;;;;;5.65;100.00;98669.91;5091750;28;21412;-61
2021/12/20 08:36:46;;;;;;;45.63;4.47;;;;;;;5.85;100.00;98665.28;5091604;28;20612;-62
2021/12/20 08:39:19;;;;;;;35.73;2.70;;;;;;;5.54;100.00;98671.38;5091761;28;20610;-62
2021/12/20 08:41:46;;;;;;;46.40;3.30;;;;;;;5.42;100.00;98671.25;5091668;28;20618;-61
2021/12/20 08:44:13;;;;;;;44.20;3.40;;;;;;;5.48;100.00;98671.44;5091597;28;20617;-61
2021/12/20 08:46:39;;;;;;;31.63;2.60;;;;;;;5.75;100.00;98676.38;5091620;28;20602;-62
2021/12/20 08:49:07;;;;;;;34.93;3.50;;;;;;;5.82;100.00;98673.66;5091640;28;20639;-62
2021/12/20 08:51:34;;;;;;;56.50;4.10;;;;;;;5.93;100.00;98675.69;5082980;28;20600;-62
2021/12/20 08:54:03;;;;;;;80.03;6.10;;;;;;;5.70;100.00;98675.38;5091293;28;20641;-62
2021/12/20 08:56:29;;;;;;;64.97;4.60;;;;;;;5.52;100.00;98676.09;5091331;28;20617;-62
2021/12/20 08:58:56;;;;;;;36.93;3.10;;;;;;;5.40;100.00;98681.25;5091381;28;20632;-61
2021/12/20 09:01:22;;;;;;;40.17;3.60;;;;;;;5.06;100.00;98686.06;5091262;28;20601;-63
2021/12/20 09:03:49;;;;;;;24.00;2.93;;;;;;;4.95;100.00;98684.06;5091244;28;20593;-61
2021/12/20 09:06:17;;;;;;;37.60;3.83;;;;;;;4.82;100.00;98677.78;5091135;28;20609;-61
2021/12/20 09:08:43;;;;;;;57.90;4.90;;;;;;;4.74;100.00;98679.84;5091026;28;20671;-61
2021/12/20 09:11:11;;;;;;;51.17;4.77;;;;;;;4.79;100.00;98675.56;5091087;28;20598;-62
2021/12/20 09:13:38;;;;;;;44.60;4.30;;;;;;;5.05;100.00;98679.94;5091019;28;20652;-61
2021/12/20 09:16:05;;;;;;;20.43;3.63;;;;;;;4.92;100.00;98681.84;5090182;28;20605;-61
2021/12/20 09:18:31;;;;;;;31.27;3.17;;;;;;;4.73;100.00;98691.44;5091237;28;20601;-61
2021/12/20 09:20:59;;;;;;;69.43;5.00;;;;;;;4.63;100.00;98686.59;5091647;28;20594;-62
2021/12/20 09:23:28;;;;;;;34.73;3.50;;;;;;;4.77;100.00;98684.72;5090751;28;20605;-62
2021/12/20 09:25:55;;;;;;;25.33;2.30;;;;;;;5.01;100.00;98677.94;5090895;28;21173;-62
2021/12/20 09:28:23;;;;;;;35.50;2.53;;;;;;;4.83;100.00;98678.59;5090792;28;20605;-62
2021/12/20 09:30:49;;;;;;;25.57;2.77;;;;;;;4.80;100.00;98679.81;5090617;28;20610;-61
2021/12/20 09:33:16;;;;;;;64.23;5.13;;;;;;;4.92;100.00;98681.84;5090660;28;20641;-61
2021/12/20 09:35:43;;;;;;;57.63;4.53;;;;;;;4.79;100.00;98691.44;5090651;28;20631;-62
2021/12/20 09:38:15;;;;;;;30.27;3.07;;;;;;;4.75;100.00;98684.13;5090672;28;20594;-61
2021/12/20 09:40:51;;;;;;;39.83;3.47;;;;;;;4.57;100.00;98683.94;5090521;28;20617;-62
2021/12/20 09:43:18;;;;;;;39.23;3.00;;;;;;;4.57;100.00;98691.88;5090371;28;20631;-62
2021/12/20 09:45:46;;;;;;;57.03;5.03;;;;;;;4.92;100.00;98690.56;5090511;28;20639;-62
2021/12/20 09:48:13;;;;;;;14.17;2.30;;;;;;;4.77;100.00;98687.34;5090497;28;20617;-62
2021/12/20 09:50:40;;;;;;;56.70;3.87;;;;;;;4.88;100.00;98690.19;5090334;28;21107;-61
2021/12/20 09:53:07;;;;;;;31.50;3.00;;;;;;;5.03;100.00;98689.94;5090108;28;20728;-61
2021/12/20 09:55:35;;;;;;;36.77;3.30;;;;;;;4.88;100.00;98682.25;5081927;28;20616;-61
2021/12/20 09:58:04;;;;;;;76.77;5.20;;;;;;;4.76;100.00;98689.22;5090201;28;20639;-61
2021/12/20 10:00:32;;;;;;;53.57;4.00;;;;;;;4.92;100.00;98695.09;5089960;28;20598;-61
2021/12/20 10:03:00;;;;;;;73.27;4.90;;;;;;;5.03;100.00;98699.72;5090038;28;20625;-61
2021/12/20 10:05:27;;;;;;;50.50;3.20;;;;;;;4.92;100.00;98698.50;5089901;28;20605;-62
2021/12/20 10:07:56;;;;;;;35.47;2.83;;;;;;;5.00;100.00;98693.00;5090166;28;20598;-62
2021/12/20 10:10:38;;;;;;;33.47;2.83;;;;;;;5.15;100.00;98698.88;5089942;28;20612;-62
2021/12/20 10:13:06;;;;;;;31.73;3.47;;;;;;;5.09;100.00;98691.75;5089989;28;20636;-62
2021/12/20 10:15:34;;;;;;;42.73;4.40;;;;;;;4.93;100.00;98697.50;5089728;28;20605;-62
2021/12/20 10:18:02;;;;;;;56.33;4.40;;;;;;;4.95;100.00;98706.06;5089841;28;20696;-62
2021/12/20 10:20:30;;;;;;;33.37;2.53;;;;;;;5.42;100.00;98697.75;5089854;28;20606;-62
2021/12/20 10:23:10;;;;;;;38.00;3.10;;;;;;;5.40;100.00;98698.97;5089838;28;20669;-62
2021/12/20 10:25:37;;;;;;;33.27;3.27;;;;;;;5.44;100.00;98706.31;5081831;28;20678;-61
2021/12/20 10:28:07;;;;;;;32.80;3.37;;;;;;;5.53;100.00;98695.47;5080238;28;20605;-61
2021/12/20 10:30:36;;;;;;;53.80;4.03;;;;;;;5.20;100.00;98701.69;5089527;28;20598;-62
2021/12/20 10:33:08;;;;;;;53.53;3.63;;;;;;;5.36;100.00;98698.59;5089581;28;20667;-62
2021/12/20 10:35:38;;;;;;;42.80;3.17;;;;;;;5.33;100.00;98690.22;5081358;28;20598;-63
2021/12/20 10:38:08;;;;;;;55.33;3.77;;;;;;;5.09;100.00;98697.06;5089515;28;21315;-62
2021/12/20 10:40:47;;;;;;;50.87;4.47;;;;;;;4.86;100.00;98691.41;5081360;28;20618;-62
2021/12/20 10:43:15;;;;;;;31.33;3.20;;;;;;;4.76;100.00;98680.44;5088194;28;20865;-61
2021/12/20 10:45:42;;;;;;;54.93;4.03;;;;;;;4.79;100.00;98685.34;5089434;28;20637;-63
2021/12/20 10:48:12;;;;;;;79.60;6.03;;;;;;;4.73;100.00;98680.88;5089355;28;20594;-63
2021/12/20 10:50:42;;;;;;;54.80;3.83;;;;;;;4.77;100.00;98679.41;5081632;28;20639;-62
2021/12/20 10:53:19;;;;;;;42.30;2.97;;;;;;;4.83;100.00;98673.28;5089318;28;20605;-65
2021/12/20 10:55:48;;;;;;;63.30;4.30;;;;;;;4.74;100.00;98672.72;5089346;28;20617;-66
2021/12/20 10:58:28;;;;;;;58.33;3.50;;;;;;;4.76;100.00;98677.81;5088995;28;20636;-64
2021/12/20 11:01:11;;;;;;;71.23;4.83;;;;;;;4.89;100.00;98673.28;5089297;28;20731;-66
2021/12/20 11:03:40;;;;;;;63.23;3.40;;;;;;;5.04;100.00;98675.69;5081332;28;20649;-65
2021/12/20 11:06:26;;;;;;;2266.67;999.90;;;;;;;8.30;100.00;98669.28;5089235;28;20616;-65
2021/12/20 11:09:05;;;;;;;2266.67;999.90;;;;;;;10.15;100.00;98665.38;5083515;28;20602;-65
2021/12/20 11:11:34;;;;;;;2266.67;999.90;;;;;;;10.70;100.00;98654.78;5088005;28;21315;-67
2021/12/20 11:14:01;;;;;;;945.60;765.27;;;;;;;10.92;100.00;98657.47;5089209;28;20640;-66
2021/12/20 11:16:31;;;;;;;736.13;548.50;;;;;;;10.32;93.70;98665.38;5089096;28;20589;-65
2021/12/20 11:19:18;;;;;;;151.70;68.57;;;;;;;11.81;91.27;98653.47;5089071;28;20605;-66
2021/12/20 11:21:54;;;;;;;83.10;19.67;;;;;;;8.91;81.09;98663.47;5082044;28;21002;-66
2021/12/20 11:24:23;;;;;;;1706.67;999.90;;;;;;;10.21;100.00;98664.41;5088826;28;20649;-66
2021/12/20 11:26:51;;;;;;;1822.73;999.90;;;;;;;12.15;92.86;98648.72;5089040;28;20874;-65
2021/12/20 11:29:19;;;;;;;1267.87;962.97;;;;;;;12.88;88.51;98647.06;5088943;28;20610;-65
2021/12/20 11:31:46;;;;;;;962.00;858.73;;;;;;;13.17;86.30;98644.84;5089055;28;20613;-66
2021/12/20 11:34:14;;;;;;;1451.50;942.43;;;;;;;13.07;83.30;98650.13;5089039;28;20597;-65
2021/12/20 11:36:42;;;;;;;378.77;210.23;;;;;;;12.75;81.06;98642.97;5088943;28;20605;-65
2021/12/20 11:39:09;;;;;;;49.60;7.50;;;;;;;10.51;72.43;98637.38;5089689;28;20624;-66
2021/12/20 11:41:37;;;;;;;48.63;7.77;;;;;;;8.77;80.13;98650.66;5084624;28;20635;-65
2021/12/20 11:44:07;;;;;;;30.20;6.00;;;;;;;7.91;91.29;98648.59;5092630;28;21355;-67
2021/12/20 11:46:41;;;;;;;37.13;2.90;;;;;;;7.27;88.97;98654.59;5092373;28;21435;-65
2021/12/20 11:49:08;;;;;;;1035.27;862.80;;;;;;;10.60;100.00;98641.25;5092482;28;20609;-66
2021/12/20 11:52:03;;;;;;;868.37;772.40;;;;;;;13.17;90.42;98642.97;5083886;28;20635;-64